createdAt,value
2023-04-09T00:02:23.082Z,15.73
2023-04-09T00:04:51.809Z,17.23
2023-04-09T00:07:21.180Z,15.20
2023-04-09T00:09:50.243Z,18.20
2023-04-09T00:12:19.290Z,17.83
2023-04-09T00:14:49.660Z,17.92
2023-04-09T00:19:46.930Z,18.38
2023-04-09T00:22:16.416Z,17.27
2023-04-09T00:24:45.417Z,15.77
2023-04-09T00:27:14.306Z,16.02
2023-04-09T00:29:43.406Z,21.00
2023-04-09T00:32:14.383Z,16.80
2023-04-09T00:34:43.131Z,21.17
2023-04-09T00:37:12.056Z,16.90
2023-04-09T00:39:41.372Z,20.85
2023-04-09T00:42:10.346Z,21.25
2023-04-09T00:44:39.272Z,19.00
2023-04-09T00:47:08.219Z,18.98
2023-04-09T00:49:38.374Z,19.58
2023-04-09T00:54:36.069Z,22.80
2023-04-09T00:57:05.228Z,18.75
2023-04-09T00:59:34.186Z,21.92
2023-04-09T01:02:03.102Z,16.83
2023-04-09T01:04:31.914Z,18.35
2023-04-09T01:07:08.573Z,19.55
2023-04-09T01:09:40.720Z,19.58
2023-04-09T01:12:14.557Z,17.90
2023-04-09T01:14:48.825Z,17.80
2023-04-09T01:17:26.225Z,17.38
2023-04-09T01:20:01.062Z,17.77
2023-04-09T01:22:35.960Z,21.05
2023-04-09T01:25:11.458Z,18.08
2023-04-09T01:27:52.852Z,17.38
2023-04-09T01:30:23.680Z,22.73
2023-04-09T01:32:53.822Z,18.63
2023-04-09T01:35:23.206Z,17.92
2023-04-09T01:37:52.596Z,18.08
2023-04-09T01:40:21.586Z,20.73
2023-04-09T01:42:51.275Z,19.00
2023-04-09T01:45:20.601Z,21.40
2023-04-09T01:47:51.130Z,17.02
2023-04-09T01:50:20.474Z,20.10
2023-04-09T01:52:49.111Z,18.58
2023-04-09T01:55:18.310Z,22.48
2023-04-09T01:57:47.417Z,18.85
2023-04-09T02:00:17.234Z,20.63
2023-04-09T02:02:55.577Z,16.50
2023-04-09T02:05:27.316Z,18.85
2023-04-09T02:07:58.296Z,16.92
2023-04-09T02:10:28.686Z,19.88
2023-04-09T02:15:28.300Z,19.77
2023-04-09T02:17:58.901Z,20.20
2023-04-09T02:20:29.098Z,20.92
2023-04-09T02:22:58.747Z,21.63
2023-04-09T02:25:27.909Z,20.42
2023-04-09T02:27:56.928Z,19.17
2023-04-09T02:30:26.039Z,18.00
2023-04-09T02:32:55.408Z,22.55
2023-04-09T02:35:25.935Z,17.85
2023-04-09T02:37:54.713Z,20.33
2023-04-09T02:40:23.807Z,19.55
2023-04-09T02:42:53.217Z,19.02
2023-04-09T02:45:22.344Z,19.95
2023-04-09T02:47:51.375Z,20.50
2023-04-09T02:50:20.677Z,22.20
2023-04-09T02:52:53.995Z,21.15
2023-04-09T02:55:23.224Z,20.90
2023-04-09T02:57:53.402Z,21.27
2023-04-09T03:00:22.671Z,21.33
2023-04-09T03:02:52.911Z,20.67
2023-04-09T03:05:22.348Z,22.92
2023-04-09T03:07:50.919Z,23.25
2023-04-09T03:10:21.415Z,19.92
2023-04-09T03:12:51.267Z,25.38
2023-04-09T03:15:20.278Z,21.50
2023-04-09T03:17:49.317Z,21.77
2023-04-09T03:20:18.445Z,20.75
2023-04-09T03:22:47.008Z,19.10
2023-04-09T03:25:31.562Z,20.65
2023-04-09T03:28:04.412Z,20.23
2023-04-09T03:30:43.030Z,22.63
2023-04-09T03:33:12.240Z,23.25
2023-04-09T03:36:01.648Z,20.58
2023-04-09T03:38:49.547Z,23.30
2023-04-09T03:41:35.081Z,23.15
2023-04-09T03:44:07.794Z,24.13
2023-04-09T03:46:46.629Z,23.98
2023-04-09T03:49:19.270Z,26.67
2023-04-09T03:51:48.453Z,25.52
2023-04-09T03:54:18.006Z,23.88
2023-04-09T03:56:52.009Z,26.25
2023-04-09T03:59:25.513Z,25.92
2023-04-09T04:01:54.321Z,23.77
2023-04-09T04:04:24.020Z,21.95
2023-04-09T04:06:57.410Z,22.98
2023-04-09T04:09:42.851Z,24.50
2023-04-09T04:12:17.535Z,24.20
2023-04-09T04:15:06.172Z,27.85
2023-04-09T04:17:57.219Z,29.58
2023-04-09T04:20:43.242Z,27.67
2023-04-09T04:23:15.426Z,27.20
2023-04-09T04:25:54.383Z,27.77
2023-04-09T04:28:33.441Z,25.08
2023-04-09T04:31:02.600Z,27.70
2023-04-09T04:33:34.150Z,28.52
2023-04-09T04:36:07.689Z,24.85
2023-04-09T04:38:54.967Z,26.02
2023-04-09T04:41:32.830Z,25.50
2023-04-09T04:44:12.653Z,23.88
2023-04-09T04:46:42.702Z,21.55
2023-04-09T04:49:13.031Z,19.80
2023-04-09T04:51:49.276Z,19.67
2023-04-09T04:54:19.146Z,17.42
2023-04-09T04:56:54.298Z,18.80
2023-04-09T04:59:44.290Z,19.23
2023-04-09T05:02:15.801Z,17.38
2023-04-09T05:04:55.245Z,24.65
2023-04-09T05:07:31.689Z,17.73
2023-04-09T05:10:00.712Z,20.70
2023-04-09T05:12:36.446Z,23.10
2023-04-09T05:15:08.800Z,27.25
2023-04-09T05:17:39.584Z,24.55
2023-04-09T05:22:48.584Z,25.77
2023-04-09T05:25:18.066Z,23.77
2023-04-09T05:27:47.428Z,24.13
2023-04-09T05:30:18.450Z,21.37
2023-04-09T05:32:48.440Z,19.67
2023-04-09T05:35:18.616Z,19.17
2023-04-09T05:37:47.355Z,21.33
2023-04-09T05:40:16.486Z,19.98
2023-04-09T05:42:45.945Z,20.48
2023-04-09T05:45:22.443Z,19.75
2023-04-09T05:47:54.558Z,18.73
2023-04-09T05:50:25.198Z,20.45
2023-04-09T05:52:55.948Z,21.88
2023-04-09T05:55:32.813Z,18.88
2023-04-09T05:58:03.458Z,19.35
2023-04-09T06:00:34.643Z,17.25
2023-04-09T06:03:05.039Z,17.98
2023-04-09T06:05:34.055Z,17.25
2023-04-09T06:08:03.608Z,15.27
2023-04-09T06:10:34.432Z,18.15
2023-04-09T06:13:03.998Z,17.23
2023-04-09T06:15:34.589Z,18.77
2023-04-09T06:18:03.771Z,19.50
2023-04-09T06:20:32.741Z,19.98
2023-04-09T06:23:01.674Z,16.85
2023-04-09T06:25:30.085Z,16.83
2023-04-09T06:27:58.995Z,18.98
2023-04-09T06:30:27.922Z,21.60
2023-04-09T06:32:58.421Z,19.20
2023-04-09T06:35:27.653Z,18.20
2023-04-09T06:37:56.448Z,19.05
2023-04-09T06:40:25.566Z,18.77
2023-04-09T06:42:54.598Z,17.95
2023-04-09T06:45:32.789Z,19.52
2023-04-09T06:48:03.449Z,17.50
2023-04-09T06:50:32.432Z,16.20
2023-04-09T06:53:01.359Z,17.95
2023-04-09T06:55:30.091Z,15.43
2023-04-09T06:57:59.007Z,17.02
2023-04-09T07:00:27.985Z,16.40
2023-04-09T07:02:57.468Z,15.23
2023-04-09T07:05:28.282Z,15.02
2023-04-09T07:07:56.912Z,17.38
2023-04-09T07:10:26.249Z,15.23
2023-04-09T07:12:55.342Z,15.65
2023-04-09T07:15:24.533Z,16.65
2023-04-09T07:17:53.613Z,16.83
2023-04-09T07:20:22.882Z,16.45
2023-04-09T07:22:53.050Z,17.92
2023-04-09T07:25:22.306Z,17.77
2023-04-09T07:27:51.427Z,19.20
2023-04-09T07:30:20.507Z,18.08
2023-04-09T07:32:49.441Z,19.45
2023-04-09T07:35:18.798Z,18.65
2023-04-09T07:37:47.393Z,21.42
2023-04-09T07:40:17.787Z,16.25
2023-04-09T07:42:47.107Z,18.50
2023-04-09T07:45:17.240Z,17.77
2023-04-09T07:47:46.329Z,17.08
2023-04-09T07:50:16.020Z,17.05
2023-04-09T07:52:44.702Z,17.63
2023-04-09T07:55:13.767Z,16.38
2023-04-09T07:57:45.368Z,18.25
2023-04-09T08:00:15.246Z,18.02
2023-04-09T08:02:45.861Z,16.95
2023-04-09T08:05:15.180Z,17.83
2023-04-09T08:07:44.106Z,16.73
2023-04-09T08:10:15.349Z,15.40
2023-04-09T08:12:46.132Z,17.58
2023-04-09T08:15:15.282Z,17.00
2023-04-09T08:17:44.442Z,15.68
2023-04-09T08:20:14.142Z,16.30
2023-04-09T08:22:42.854Z,15.45
2023-04-09T08:25:11.781Z,16.08
2023-04-09T08:27:40.996Z,18.13
2023-04-09T08:30:12.734Z,15.32
2023-04-09T08:32:41.873Z,15.27
2023-04-09T08:35:11.615Z,15.43
2023-04-09T08:37:40.116Z,15.88
2023-04-09T08:40:11.746Z,15.25
2023-04-09T08:42:46.030Z,13.88
2023-04-09T08:45:17.291Z,14.02
2023-04-09T08:47:47.023Z,13.90
2023-04-09T08:50:16.257Z,14.57
2023-04-09T08:52:47.915Z,13.60
2023-04-09T08:55:16.988Z,13.65
2023-04-09T08:57:46.051Z,13.55
2023-04-09T09:00:16.712Z,15.07
2023-04-09T09:03:03.806Z,14.63
2023-04-09T09:05:40.702Z,13.23
2023-04-09T09:08:10.567Z,15.20
2023-04-09T09:10:47.420Z,12.25
2023-04-09T09:13:22.766Z,10.90
2023-04-09T09:15:55.190Z,10.38
2023-04-09T09:18:39.489Z,15.32
2023-04-09T09:21:14.744Z,14.18
2023-04-09T09:23:44.090Z,12.73
2023-04-09T09:26:16.612Z,13.60
2023-04-09T09:28:45.610Z,13.23
2023-04-09T09:31:14.917Z,13.45
2023-04-09T09:33:43.983Z,13.05
2023-04-09T09:36:12.971Z,11.90
2023-04-09T09:38:54.859Z,15.05
2023-04-09T09:41:26.414Z,13.75
2023-04-09T09:43:54.994Z,11.80
2023-04-09T09:46:24.060Z,13.05
2023-04-09T09:48:53.299Z,12.23
2023-04-09T09:51:28.633Z,12.20
2023-04-09T09:53:58.547Z,11.77
2023-04-09T09:56:33.539Z,10.93
2023-04-09T09:59:07.514Z,10.90
2023-04-09T10:01:37.392Z,11.60
2023-04-09T10:04:08.755Z,10.48
2023-04-09T10:06:38.909Z,11.80
2023-04-09T10:09:08.088Z,10.93
2023-04-09T10:11:39.353Z,10.20
2023-04-09T10:14:08.532Z,9.75
2023-04-09T10:16:37.325Z,11.75
2023-04-09T10:19:08.234Z,9.43
2023-04-09T10:21:42.870Z,9.45
2023-04-09T10:24:12.285Z,11.52
2023-04-09T10:26:44.733Z,11.60
2023-04-09T10:29:15.351Z,15.20
2023-04-09T10:34:19.221Z,11.27
2023-04-09T10:36:53.075Z,11.45
2023-04-09T10:39:21.985Z,14.30
2023-04-09T10:41:52.592Z,17.65
2023-04-09T10:44:22.502Z,9.93
2023-04-09T10:46:51.525Z,10.50
2023-04-09T10:49:22.299Z,15.95
2023-04-09T10:51:55.085Z,11.63
2023-04-09T10:54:47.269Z,9.77
2023-04-09T10:57:19.347Z,11.20
2023-04-09T10:59:49.873Z,11.77
2023-04-09T11:02:54.976Z,10.27
2023-04-09T11:05:28.353Z,12.80
2023-04-09T11:08:02.616Z,10.20
2023-04-09T11:10:32.127Z,10.70
2023-04-09T11:13:03.246Z,10.83
2023-04-09T11:15:33.536Z,10.75
2023-04-09T11:18:03.325Z,13.57
2023-04-09T11:20:32.657Z,12.10
2023-04-09T11:23:01.955Z,10.65
2023-04-09T11:25:32.320Z,10.98
2023-04-09T11:28:04.640Z,14.52
2023-04-09T11:30:34.522Z,9.55
2023-04-09T11:33:03.916Z,9.15
2023-04-09T11:35:35.910Z,9.13
2023-04-09T11:38:09.298Z,9.00
2023-04-09T11:40:43.582Z,8.80
2023-04-09T11:43:14.938Z,10.95
2023-04-09T11:45:44.290Z,8.55
2023-04-09T11:48:13.930Z,9.75
2023-04-09T11:50:42.956Z,10.98
2023-04-09T11:53:19.187Z,9.00
2023-04-09T11:55:51.709Z,8.73
2023-04-09T11:58:24.131Z,8.38
2023-04-09T12:00:55.883Z,10.00
2023-04-09T12:03:30.860Z,9.38
2023-04-09T12:06:02.598Z,9.18
2023-04-09T12:08:32.026Z,10.13
2023-04-09T12:11:10.557Z,12.77
2023-04-09T12:13:43.542Z,10.50
2023-04-09T12:16:13.318Z,12.15
2023-04-09T12:18:42.603Z,12.57
2023-04-09T12:21:11.647Z,10.87
2023-04-09T12:23:40.964Z,11.13
2023-04-09T12:26:09.864Z,12.00
2023-04-09T12:28:38.430Z,12.77
2023-04-09T12:31:11.147Z,13.15
2023-04-09T12:33:40.634Z,10.85
2023-04-09T12:36:09.967Z,13.93
2023-04-09T12:38:39.031Z,13.70
2023-04-09T12:41:08.056Z,9.57
2023-04-09T12:43:36.633Z,12.23
2023-04-09T12:46:06.114Z,9.43
2023-04-09T12:48:36.462Z,8.93
2023-04-09T12:53:34.188Z,9.82
2023-04-09T12:56:03.446Z,10.00
2023-04-09T12:58:32.965Z,10.60
2023-04-09T13:01:04.388Z,8.77
2023-04-09T13:03:33.560Z,9.93
2023-04-09T13:06:04.029Z,9.40
2023-04-09T13:08:33.090Z,11.02
2023-04-09T13:11:01.934Z,9.23
2023-04-09T13:13:31.622Z,10.73
2023-04-09T13:16:00.500Z,12.00
2023-04-09T13:18:29.573Z,9.43
2023-04-09T13:20:58.546Z,9.68
2023-04-09T13:23:28.880Z,9.15
2023-04-09T13:25:57.461Z,9.65
2023-04-09T13:28:26.755Z,10.82
2023-04-09T13:30:55.628Z,9.00
2023-04-09T13:33:24.635Z,9.57
2023-04-09T13:35:53.447Z,8.20
2023-04-09T13:38:22.444Z,9.45
2023-04-09T13:40:52.447Z,8.95
2023-04-09T20:13:22.132Z,8.82
2023-04-09T20:15:51.820Z,12.07
2023-04-09T20:18:20.776Z,7.50
2023-04-09T20:20:50.782Z,12.30
2023-04-09T20:23:19.766Z,11.55
2023-04-09T20:25:48.251Z,12.07
2023-04-09T20:28:17.118Z,9.73
2023-04-09T20:30:47.815Z,9.68
2023-04-09T20:33:16.849Z,10.50
2023-04-09T20:35:45.822Z,11.95
2023-04-09T20:38:14.858Z,11.23
2023-04-09T20:40:43.414Z,11.02
2023-04-09T20:43:12.390Z,11.27
2023-04-09T20:45:41.359Z,11.80
2023-04-09T20:48:12.045Z,12.73
2023-04-09T20:50:40.955Z,12.90
2023-04-09T20:53:09.903Z,10.60
2023-04-09T20:55:38.856Z,11.15
2023-04-09T20:58:07.854Z,12.85
2023-04-09T21:00:36.936Z,14.15
2023-04-09T21:03:07.189Z,15.70
2023-04-09T21:05:37.930Z,13.77
2023-04-09T21:08:07.017Z,16.42
2023-04-09T21:10:35.540Z,17.13
2023-04-09T21:13:04.521Z,16.42
2023-04-09T21:15:33.358Z,12.93
2023-04-09T21:18:02.467Z,13.80
2023-04-09T21:20:31.486Z,13.25
2023-04-09T21:23:01.942Z,11.82
2023-04-09T21:25:30.635Z,17.15
2023-04-09T21:27:59.694Z,12.75
2023-04-09T21:30:29.766Z,16.67
2023-04-09T21:33:01.133Z,14.85
2023-04-09T21:35:30.240Z,16.23
2023-04-09T21:37:59.360Z,16.05
2023-04-09T21:40:29.300Z,12.98
2023-04-09T21:45:26.946Z,14.77
2023-04-09T21:47:55.908Z,15.55
2023-04-09T21:50:24.889Z,16.45
2023-04-09T21:52:53.413Z,15.82
2023-04-09T21:55:22.453Z,21.80
2023-04-09T21:57:55.321Z,23.63
2023-04-09T22:00:24.499Z,19.70
2023-04-09T22:02:53.416Z,25.38
2023-04-09T22:05:23.326Z,26.67
2023-04-09T22:07:51.890Z,23.98
2023-04-09T22:10:20.807Z,27.35
2023-04-09T22:12:49.972Z,35.47
2023-04-09T22:15:21.459Z,30.27
2023-04-09T22:17:50.442Z,31.75
2023-04-09T22:20:19.327Z,34.13
2023-04-09T22:22:48.436Z,33.38
2023-04-09T22:25:17.392Z,29.85
2023-04-09T22:27:46.366Z,31.33
2023-04-09T22:30:15.199Z,26.98
2023-04-09T22:32:45.616Z,27.88
2023-04-09T22:35:18.234Z,31.05
2023-04-09T22:37:47.295Z,28.40
2023-04-09T22:40:16.916Z,26.80
2023-04-09T22:42:48.051Z,31.73
2023-04-09T22:45:17.005Z,30.30
2023-04-09T22:47:47.340Z,31.77
2023-04-09T22:52:44.377Z,30.88
2023-04-09T22:55:13.749Z,33.63
2023-04-09T22:57:44.342Z,33.95
2023-04-09T23:00:14.155Z,37.25
2023-04-09T23:02:43.401Z,30.10
2023-04-09T23:05:13.985Z,30.10
2023-04-09T23:07:42.856Z,32.83
2023-04-09T23:10:14.377Z,32.78
2023-04-09T23:12:43.412Z,29.33
2023-04-09T23:15:12.852Z,36.70
2023-04-09T23:17:42.969Z,31.77
2023-04-09T23:20:15.098Z,33.65
2023-04-09T23:22:43.785Z,41.53
2023-04-09T23:25:13.464Z,35.95
2023-04-09T23:27:42.415Z,36.35
2023-04-09T23:30:16.765Z,40.22
2023-04-09T23:32:46.248Z,31.52
2023-04-09T23:35:16.817Z,31.73
2023-04-09T23:37:45.657Z,36.38
2023-04-09T23:40:15.729Z,35.40
2023-04-09T23:45:13.469Z,32.83
2023-04-09T23:47:42.532Z,30.05
2023-04-09T23:50:11.868Z,33.65
2023-04-09T23:52:47.961Z,35.58
2023-04-09T23:55:18.148Z,33.20
2023-04-09T23:57:47.466Z,30.02
